Time;durP1;ratioP1;P1;durP2;ratioP2;P2;SDS_P1;SDS_P2;PMS_P1;PMS_P2;Temp;Humidity;BMP_temperature;BMP_pressure;BME280_temperature;BME280_humidity;BME280_pressure;Samples;Min_cycle;Max_cycle;Signal;HPM_P1;HPM_P2
2022/10/20 00:00:21;;;;;;;12.00;5.60;;;7.80;99.90;;;;;;5135214;27;20074;-70
2022/10/20 00:02:46;;;;;;;11.73;4.93;;;7.80;99.90;;;;;;5135462;27;20386;-70
2022/10/20 00:05:12;;;;;;;10.13;4.65;;;7.80;99.90;;;;;;5153793;27;20049;-70
2022/10/20 00:07:38;;;;;;;8.45;4.70;;;7.70;99.90;;;;;;5153332;27;20435;-70
2022/10/20 00:10:04;;;;;;;8.10;4.93;;;7.80;99.90;;;;;;5118713;27;20034;-71
2022/10/20 00:12:30;;;;;;;7.97;4.55;;;7.70;99.90;;;;;;5120747;27;20720;-70
2022/10/20 00:14:55;;;;;;;7.65;4.40;;;7.70;99.90;;;;;;5137763;27;20081;-70
2022/10/20 00:17:21;;;;;;;11.18;4.72;;;7.70;99.90;;;;;;5137739;27;20038;-69
2022/10/20 00:19:48;;;;;;;8.52;5.20;;;7.70;99.90;;;;;;5137820;27;20101;-69
2022/10/20 00:22:14;;;;;;;8.63;5.68;;;7.70;99.90;;;;;;5135638;27;20348;-70
2022/10/20 00:24:40;;;;;;;8.15;4.97;;;7.60;99.90;;;;;;5137737;27;20171;-69
2022/10/20 00:27:06;;;;;;;7.97;4.90;;;7.60;99.90;;;;;;5120511;27;20030;-70
2022/10/20 00:29:32;;;;;;;11.77;5.40;;;7.60;99.90;;;;;;5156084;27;20046;-70
2022/10/20 00:31:57;;;;;;;9.82;5.30;;;7.60;99.90;;;;;;5120441;27;20121;-70
2022/10/20 00:34:23;;;;;;;8.20;4.72;;;7.60;99.90;;;;;;5134050;27;20086;-70
2022/10/20 00:36:49;;;;;;;9.13;4.68;;;7.60;99.90;;;;;;5134396;27;20503;-70
2022/10/20 00:39:15;;;;;;;8.57;5.38;;;7.60;99.90;;;;;;5116792;27;20035;-70
2022/10/20 00:41:41;;;;;;;9.48;4.15;;;7.50;99.90;;;;;;5133940;27;20042;-70
2022/10/20 00:44:45;;;;;;;9.45;5.32;;;7.50;99.90;;;;;;5116590;27;20480;-70
2022/10/20 00:47:13;;;;;;;11.23;5.70;;;7.50;99.90;;;;;;5130848;27;20039;-69
2022/10/20 00:49:39;;;;;;;11.18;5.80;;;7.40;99.90;;;;;;5135184;27;20046;-69
2022/10/20 00:52:06;;;;;;;7.88;5.20;;;7.40;99.90;;;;;;5131483;27;20486;-69
2022/10/20 00:54:32;;;;;;;12.35;5.30;;;7.40;99.90;;;;;;5133543;27;20035;-69
2022/10/20 00:56:59;;;;;;;9.80;4.90;;;7.40;99.90;;;;;;5133592;27;20046;-69
2022/10/20 00:59:30;;;;;;;7.60;4.60;;;7.30;99.90;;;;;;5133534;27;20043;-68
2022/10/20 01:01:58;;;;;;;9.02;5.97;;;7.30;99.90;;;;;;5134765;27;20075;-69
2022/10/20 01:04:26;;;;;;;13.13;6.20;;;7.30;99.90;;;;;;5133506;27;20031;-69
2022/10/20 01:06:52;;;;;;;12.40;4.78;;;7.30;99.90;;;;;;5134783;27;20038;-69
2022/10/20 01:09:18;;;;;;;9.95;5.63;;;7.30;99.90;;;;;;5134688;27;20040;-69
2022/10/20 01:11:58;;;;;;;11.40;5.72;;;7.30;99.90;;;;;;5116394;27;20380;-69
2022/10/20 01:14:49;;;;;;;10.07;5.25;;;7.20;99.90;;;;;;5134759;27;20047;-69
2022/10/20 01:17:15;;;;;;;10.23;5.90;;;7.20;99.90;;;;;;5134514;27;20039;-69
2022/10/20 01:20:09;;;;;;;14.10;5.85;;;7.20;99.90;;;;;;5115897;27;20558;-69
2022/10/20 01:22:41;;;;;;;8.23;5.15;;;7.10;99.90;;;;;;5077119;27;20135;-70
2022/10/20 01:25:25;;;;;;;13.60;5.88;;;7.10;99.90;;;;;;5133079;27;20074;-70
2022/10/20 01:28:21;;;;;;;11.20;5.20;;;7.10;99.90;;;;;;5134401;27;20031;-69
2022/10/20 01:30:52;;;;;;;11.05;5.53;;;7.10;99.90;;;;;;5126373;27;20043;-69
2022/10/20 01:33:29;;;;;;;15.75;5.53;;;7.10;99.90;;;;;;5133239;27;20371;-69
2022/10/20 01:36:09;;;;;;;12.63;5.47;;;7.10;99.90;;;;;;5132823;27;20058;-69
2022/10/20 01:38:46;;;;;;;11.57;5.45;;;7.00;99.90;;;;;;5134061;27;20038;-69
2022/10/20 01:41:33;;;;;;;13.45;4.88;;;7.00;99.90;;;;;;5115525;27;20043;-69
2022/10/20 01:44:05;;;;;;;16.20;5.13;;;7.00;99.90;;;;;;5132751;27;20039;-69
2022/10/20 01:46:32;;;;;;;10.25;4.85;;;7.00;99.90;;;;;;5132413;27;20042;-69
2022/10/20 01:49:01;;;;;;;10.75;5.55;;;7.00;99.90;;;;;;5132531;27;20039;-69
2022/10/20 01:51:28;;;;;;;10.02;5.35;;;7.00;99.90;;;;;;5130468;27;20126;-69
2022/10/20 01:53:53;;;;;;;11.30;5.85;;;7.00;99.90;;;;;;5132519;27;20653;-69
2022/10/20 01:56:31;;;;;;;7.45;4.75;;;7.00;99.90;;;;;;5132398;27;20172;-69
2022/10/20 01:59:21;;;;;;;10.18;5.38;;;6.90;99.90;;;;;;5133748;27;20043;-69
2022/10/20 02:02:20;;;;;;;13.93;5.88;;;6.90;99.90;;;;;;5133595;27;20091;-67
2022/10/20 02:05:08;;;;;;;11.23;5.65;;;6.90;99.90;;;;;;5132437;27;20135;-69
2022/10/20 02:07:35;;;;;;;9.85;5.30;;;6.90;99.90;;;;;;5126850;27;20092;-69
2022/10/20 02:10:26;;;;;;;12.75;5.50;;;6.90;99.90;;;;;;5125088;27;20035;-69
2022/10/20 02:12:59;;;;;;;11.20;5.95;;;6.90;99.90;;;;;;5114965;27;20131;-68
2022/10/20 02:15:27;;;;;;;10.10;6.00;;;6.90;99.90;;;;;;5133392;27;20426;-69
2022/10/20 02:17:59;;;;;;;9.10;5.13;;;6.90;99.90;;;;;;5132154;27;20101;-69
2022/10/20 02:20:27;;;;;;;11.05;5.65;;;6.90;99.90;;;;;;5133369;27;20041;-69
2022/10/20 02:22:54;;;;;;;9.38;5.40;;;6.90;99.90;;;;;;5130428;27;20071;-69
2022/10/20 02:25:22;;;;;;;13.93;5.70;;;6.90;99.90;;;;;;5131942;27;20486;-68
2022/10/20 02:27:48;;;;;;;9.05;5.03;;;6.80;99.90;;;;;;5114710;27;20119;-69
2022/10/20 02:30:16;;;;;;;9.73;5.25;;;6.80;99.90;;;;;;5133165;27;20047;-69
2022/10/20 02:32:48;;;;;;;12.48;5.07;;;6.80;99.90;;;;;;5132514;27;20047;-68
2022/10/20 02:35:20;;;;;;;9.68;5.45;;;6.80;99.90;;;;;;5117796;27;20056;-68
2022/10/20 02:37:46;;;;;;;9.68;5.30;;;6.80;99.90;;;;;;5153807;27;20043;-69
2022/10/20 02:40:12;;;;;;;8.07;5.28;;;6.70;99.90;;;;;;5117839;27;20045;-69
2022/10/20 02:42:39;;;;;;;8.15;5.15;;;6.80;99.90;;;;;;5135017;27;20050;-69
2022/10/20 02:45:07;;;;;;;9.68;5.55;;;6.70;99.90;;;;;;5134947;27;20066;-69
2022/10/20 02:47:33;;;;;;;10.98;5.65;;;6.80;99.90;;;;;;5153434;27;20042;-67
2022/10/20 02:50:00;;;;;;;7.22;5.05;;;6.70;99.90;;;;;;5134965;27;20039;-68
2022/10/20 02:52:26;;;;;;;10.85;5.18;;;6.70;99.90;;;;;;5132657;27;20047;-69
2022/10/20 02:54:52;;;;;;;13.20;5.55;;;6.70;99.90;;;;;;5134824;27;20042;-69
2022/10/20 02:57:18;;;;;;;8.05;5.10;;;6.70;99.90;;;;;;5153351;27;20035;-70
2022/10/20 02:59:43;;;;;;;10.07;5.18;;;6.70;99.90;;;;;;5134560;27;20114;-69
2022/10/20 03:02:09;;;;;;;10.07;4.93;;;6.70;99.90;;;;;;5117477;27;20054;-68
2022/10/20 03:04:35;;;;;;;10.60;5.85;;;6.70;99.90;;;;;;5134692;27;20082;-68
2022/10/20 03:07:01;;;;;;;12.88;6.55;;;6.70;99.90;;;;;;5117874;27;20034;-68
2022/10/20 03:09:26;;;;;;;12.75;6.03;;;6.70;99.90;;;;;;5117394;27;20479;-69
2022/10/20 03:11:52;;;;;;;19.52;6.50;;;6.70;99.90;;;;;;5134566;27;20038;-68
2022/10/20 03:14:18;;;;;;;13.43;6.25;;;6.70;99.90;;;;;;5134543;27;20042;-67
2022/10/20 03:16:43;;;;;;;13.60;5.70;;;6.70;99.90;;;;;;5117530;27;20054;-68
2022/10/20 03:19:09;;;;;;;8.90;6.03;;;6.70;99.90;;;;;;5134535;27;20441;-68
2022/10/20 03:21:35;;;;;;;10.30;5.80;;;6.70;99.90;;;;;;5150725;27;20038;-68
2022/10/20 03:24:01;;;;;;;9.18;5.38;;;6.60;99.90;;;;;;5134715;27;20074;-69
2022/10/20 03:26:26;;;;;;;10.05;5.78;;;6.60;99.90;;;;;;5134391;27;20519;-69
2022/10/20 03:28:52;;;;;;;10.45;6.05;;;6.60;99.90;;;;;;5134219;27;20087;-68
2022/10/20 03:31:18;;;;;;;12.98;6.00;;;6.60;99.90;;;;;;5117252;27;20079;-68
2022/10/20 03:33:43;;;;;;;9.68;5.22;;;6.60;99.90;;;;;;5130603;28;20059;-67
2022/10/20 03:36:10;;;;;;;11.30;5.45;;;6.60;99.90;;;;;;5113680;28;20057;-67
2022/10/20 03:38:36;;;;;;;11.68;5.70;;;6.60;99.90;;;;;;5132041;28;20513;-68
2022/10/20 03:41:01;;;;;;;10.45;5.80;;;6.50;99.90;;;;;;5113597;28;20035;-68
2022/10/20 03:43:27;;;;;;;8.48;5.68;;;6.50;99.90;;;;;;5130735;27;20043;-68
2022/10/20 03:46:04;;;;;;;9.93;5.68;;;6.50;99.90;;;;;;5134230;27;20031;-68
2022/10/20 03:48:30;;;;;;;8.70;5.75;;;6.50;99.90;;;;;;5134793;27;20126;-69
2022/10/20 03:50:56;;;;;;;9.93;5.72;;;6.50;99.90;;;;;;5132577;27;20860;-68
2022/10/20 03:53:21;;;;;;;14.25;6.28;;;6.50;99.90;;;;;;5136166;27;20043;-69
2022/10/20 03:55:47;;;;;;;9.70;6.40;;;6.50;99.90;;;;;;5134750;27;20096;-69
2022/10/20 03:58:13;;;;;;;12.45;6.72;;;6.50;99.90;;;;;;5134745;27;20137;-68
2022/10/20 04:00:39;;;;;;;10.95;6.32;;;6.50;99.90;;;;;;5136019;27;20411;-69
2022/10/20 04:03:04;;;;;;;12.32;6.40;;;6.60;99.90;;;;;;5135908;27;20039;-70
2022/10/20 04:05:30;;;;;;;15.05;7.18;;;6.60;99.90;;;;;;5134479;27;20039;-68
2022/10/20 04:07:56;;;;;;;14.35;6.53;;;6.60;99.90;;;;;;5134437;27;20089;-69
2022/10/20 04:10:21;;;;;;;9.82;6.15;;;6.60;99.90;;;;;;5135776;27;20169;-68
2022/10/20 04:12:47;;;;;;;10.55;6.20;;;6.60;99.90;;;;;;5134356;27;20501;-68
2022/10/20 04:15:13;;;;;;;10.88;6.45;;;6.60;99.90;;;;;;5135842;27;20050;-68
2022/10/20 04:17:39;;;;;;;12.35;6.05;;;6.60;99.90;;;;;;5134270;27;20491;-68
2022/10/20 04:20:06;;;;;;;12.10;6.57;;;6.60;99.90;;;;;;5134176;27;20039;-70
2022/10/20 04:22:32;;;;;;;14.48;6.68;;;6.70;99.90;;;;;;5133343;27;20039;-68
2022/10/20 04:24:57;;;;;;;12.68;6.88;;;6.70;99.90;;;;;;5134116;27;20524;-69
2022/10/20 04:27:23;;;;;;;12.35;7.35;;;6.70;99.90;;;;;;5134062;27;20041;-68
2022/10/20 04:29:49;;;;;;;11.02;6.30;;;6.70;99.90;;;;;;5134062;27;20047;-69
2022/10/20 04:32:15;;;;;;;10.40;6.88;;;6.70;99.90;;;;;;5135490;27;20071;-69
2022/10/20 04:34:40;;;;;;;13.50;6.68;;;6.70;99.90;;;;;;5146759;27;20121;-69
2022/10/20 04:37:06;;;;;;;14.20;7.97;;;6.70;99.90;;;;;;5137633;27;20043;-69
2022/10/20 04:39:32;;;;;;;12.35;7.10;;;6.70;99.90;;;;;;5137231;27;20452;-69
2022/10/20 04:41:58;;;;;;;11.98;7.60;;;6.70;99.90;;;;;;5137146;27;20125;-69
2022/10/20 04:44:24;;;;;;;13.13;7.30;;;6.70;99.90;;;;;;5137480;27;20145;-69
2022/10/20 04:46:50;;;;;;;11.77;7.88;;;6.70;99.90;;;;;;5155827;27;20506;-69
2022/10/20 04:49:16;;;;;;;13.05;7.47;;;6.70;99.90;;;;;;5137394;27;20042;-69
2022/10/20 04:51:41;;;;;;;9.55;7.43;;;6.70;99.90;;;;;;5153367;27;20034;-69
2022/10/20 04:54:07;;;;;;;15.20;7.72;;;6.70;99.90;;;;;;5155626;27;20043;-69
2022/10/20 04:56:33;;;;;;;13.27;8.50;;;6.70;99.90;;;;;;5155151;27;20060;-69
2022/10/20 04:58:59;;;;;;;9.52;7.32;;;6.70;99.90;;;;;;5155746;27;20053;-69
2022/10/20 05:01:27;;;;;;;11.65;7.68;;;6.70;99.90;;;;;;5136923;27;20027;-69
2022/10/20 05:03:53;;;;;;;12.27;8.63;;;6.70;99.90;;;;;;5136841;27;20035;-69
2022/10/20 05:06:30;;;;;;;12.40;8.32;;;6.70;99.90;;;;;;5136892;27;20095;-69
2022/10/20 05:08:58;;;;;;;14.60;8.77;;;6.70;99.90;;;;;;5155291;27;20042;-68
2022/10/20 05:11:26;;;;;;;14.15;8.65;;;6.70;99.90;;;;;;5137028;27;20058;-68
2022/10/20 05:13:52;;;;;;;15.73;8.85;;;6.70;99.90;;;;;;5136757;27;20046;-68
2022/10/20 05:16:18;;;;;;;15.00;9.23;;;6.60;99.90;;;;;;5155433;27;20035;-69
2022/10/20 05:18:45;;;;;;;16.33;9.43;;;6.70;99.90;;;;;;5136676;27;20050;-68
2022/10/20 05:21:19;;;;;;;16.20;9.18;;;6.70;99.90;;;;;;5152902;27;20446;-68
2022/10/20 05:23:45;;;;;;;16.70;10.23;;;6.70;99.90;;;;;;5136389;27;20039;-68
2022/10/20 05:26:16;;;;;;;14.85;9.63;;;6.70;99.90;;;;;;5154951;27;20097;-69
2022/10/20 05:28:43;;;;;;;14.05;9.73;;;6.70;99.90;;;;;;5136701;27;20102;-68
2022/10/20 05:31:09;;;;;;;16.08;9.20;;;6.70;99.90;;;;;;5136607;27;20073;-68
2022/10/20 05:33:35;;;;;;;20.40;11.95;;;6.70;99.90;;;;;;5154868;27;20372;-69
2022/10/20 05:36:12;;;;;;;16.88;10.32;;;6.70;99.90;;;;;;5154893;27;20057;-69
2022/10/20 05:38:39;;;;;;;16.70;10.00;;;6.70;99.90;;;;;;5154788;27;20035;-69
2022/10/20 05:41:16;;;;;;;12.77;9.60;;;6.60;99.90;;;;;;5154901;27;20037;-69
2022/10/20 05:43:50;;;;;;;14.93;10.70;;;6.70;99.90;;;;;;5136157;27;20035;-69
2022/10/20 05:46:17;;;;;;;15.10;9.57;;;6.70;99.90;;;;;;5154633;27;20127;-67
2022/10/20 05:48:43;;;;;;;16.73;10.77;;;6.70;99.90;;;;;;5154580;27;20493;-68
2022/10/20 05:51:21;;;;;;;19.25;11.27;;;6.70;99.90;;;;;;5133819;27;20042;-69
2022/10/20 05:53:47;;;;;;;15.30;9.93;;;6.70;99.90;;;;;;5136183;27;20039;-69
2022/10/20 05:56:15;;;;;;;19.95;10.75;;;6.70;99.90;;;;;;5135877;27;20112;-69
2022/10/20 05:58:42;;;;;;;15.63;10.18;;;6.70;99.90;;;;;;5118693;27;20038;-68
2022/10/20 06:01:16;;;;;;;16.02;11.13;;;6.70;99.90;;;;;;5118726;27;20459;-69
2022/10/20 06:03:52;;;;;;;16.33;10.30;;;6.70;99.90;;;;;;5135857;27;20117;-69
2022/10/20 06:06:21;;;;;;;17.35;10.32;;;6.80;99.90;;;;;;5135683;27;20035;-68
2022/10/20 06:08:46;;;;;;;16.70;11.02;;;6.70;99.90;;;;;;5153586;27;20498;-68
2022/10/20 06:11:14;;;;;;;16.58;10.32;;;6.70;99.90;;;;;;5135869;27;20082;-68
2022/10/20 06:13:40;;;;;;;15.93;11.20;;;6.80;99.90;;;;;;5154153;27;20474;-69
2022/10/20 06:16:18;;;;;;;18.83;12.02;;;6.80;99.90;;;;;;5135581;27;20433;-69
2022/10/20 06:18:44;;;;;;;17.23;12.05;;;6.80;99.90;;;;;;5135825;27;20035;-69
2022/10/20 06:21:17;;;;;;;19.92;11.55;;;6.80;99.90;;;;;;5133212;27;20490;-69
2022/10/20 06:23:44;;;;;;;20.35;11.80;;;6.80;99.90;;;;;;5135607;27;20038;-68
2022/10/20 06:26:12;;;;;;;19.15;11.75;;;6.80;99.90;;;;;;5153896;27;20034;-69
2022/10/20 06:28:39;;;;;;;16.30;11.38;;;6.80;99.90;;;;;;5135543;27;20439;-68
2022/10/20 06:31:16;;;;;;;20.02;11.02;;;6.80;99.90;;;;;;5135576;27;20109;-68
2022/10/20 06:33:43;;;;;;;22.77;12.55;;;6.90;99.90;;;;;;5135299;27;20050;-68
2022/10/20 06:36:09;;;;;;;17.45;12.30;;;6.90;99.90;;;;;;5135432;27;20050;-68
2022/10/20 06:38:37;;;;;;;16.33;11.15;;;6.90;99.90;;;;;;5153675;27;20098;-69
2022/10/20 06:41:04;;;;;;;16.80;11.82;;;7.00;99.90;;;;;;5134980;27;20546;-69
2022/10/20 06:43:30;;;;;;;20.23;12.10;;;6.90;99.90;;;;;;5135061;27;20042;-68
2022/10/20 06:45:58;;;;;;;17.00;11.55;;;7.00;99.90;;;;;;5153599;27;20035;-67
2022/10/20 06:48:24;;;;;;;16.75;11.43;;;7.00;99.90;;;;;;5117805;27;20041;-69
2022/10/20 06:50:55;;;;;;;16.30;11.38;;;7.00;99.90;;;;;;5132825;27;20513;-68
2022/10/20 06:53:21;;;;;;;16.67;12.10;;;7.10;99.90;;;;;;5135000;27;20049;-68
2022/10/20 06:56:05;;;;;;;15.85;11.52;;;7.10;99.90;;;;;;5153356;27;20046;-68
2022/10/20 06:58:33;;;;;;;17.70;11.95;;;7.10;99.90;;;;;;5134542;27;20070;-68
2022/10/20 07:01:05;;;;;;;14.48;10.88;;;7.20;99.90;;;;;;5153232;27;20055;-68
2022/10/20 07:03:32;;;;;;;17.08;11.40;;;7.20;99.90;;;;;;5134986;27;20126;-68
2022/10/20 07:05:58;;;;;;;19.98;12.88;;;7.20;99.90;;;;;;5134631;27;20494;-68
2022/10/20 07:08:27;;;;;;;19.33;11.68;;;7.20;99.90;;;;;;5134638;27;20057;-68
2022/10/20 07:11:06;;;;;;;18.25;11.60;;;7.30;99.90;;;;;;5134560;27;20126;-68
2022/10/20 07:13:33;;;;;;;19.52;11.95;;;7.30;99.90;;;;;;5134670;27;20130;-68
2022/10/20 07:16:00;;;;;;;16.50;11.35;;;7.30;99.90;;;;;;5134647;27;20118;-69
2022/10/20 07:18:27;;;;;;;17.23;11.38;;;7.40;99.90;;;;;;5152914;27;20506;-68
2022/10/20 07:21:03;;;;;;;16.70;11.65;;;7.40;99.90;;;;;;5150813;27;20845;-69
2022/10/20 07:23:30;;;;;;;18.88;11.60;;;7.50;99.90;;;;;;5134839;27;20108;-69
2022/10/20 07:26:23;;;;;;;17.23;11.15;;;7.50;99.90;;;;;;5153214;27;20035;-69
2022/10/20 07:28:51;;;;;;;17.65;11.32;;;7.60;99.90;;;;;;5149092;27;20444;-68
2022/10/20 07:31:29;;;;;;;16.25;11.10;;;7.60;99.90;;;;;;5153242;27;20550;-68
2022/10/20 07:33:57;;;;;;;14.57;11.30;;;7.70;99.90;;;;;;5134395;27;20051;-68
2022/10/20 07:36:32;;;;;;;14.80;11.10;;;7.70;99.90;;;;;;5154335;27;20042;-70
2022/10/20 07:39:00;;;;;;;16.67;11.68;;;7.80;99.90;;;;;;5134169;27;20062;-69
2022/10/20 07:41:27;;;;;;;14.13;11.32;;;7.90;99.90;;;;;;5152818;27;20049;-67
2022/10/20 07:43:54;;;;;;;16.92;10.80;;;8.00;99.90;;;;;;5134576;27;20031;-68
2022/10/20 07:46:20;;;;;;;16.08;11.23;;;8.00;99.90;;;;;;5134322;27;20042;-69
2022/10/20 07:48:46;;;;;;;15.32;11.02;;;8.10;99.90;;;;;;5153004;27;20114;-67
2022/10/20 07:51:21;;;;;;;16.42;11.15;;;8.10;99.90;;;;;;5149978;27;20571;-69
2022/10/20 07:53:48;;;;;;;16.10;12.02;;;8.20;99.90;;;;;;5152748;27;20046;-69
2022/10/20 07:56:14;;;;;;;13.88;10.23;;;8.20;99.90;;;;;;5147538;27;20449;-68
2022/10/20 07:58:41;;;;;;;15.77;11.43;;;8.30;99.90;;;;;;5131919;27;20051;-68
2022/10/20 08:01:07;;;;;;;14.32;9.90;;;8.40;99.90;;;;;;5134067;27;20053;-69
2022/10/20 08:03:33;;;;;;;15.85;11.93;;;8.40;99.90;;;;;;5117209;27;20095;-68
2022/10/20 08:06:00;;;;;;;14.63;11.25;;;8.40;99.90;;;;;;5134124;27;20487;-67
2022/10/20 08:08:26;;;;;;;16.98;11.55;;;8.50;99.90;;;;;;5152434;27;20039;-69
2022/10/20 08:10:52;;;;;;;17.17;10.98;;;8.50;99.90;;;;;;5134210;27;20042;-67
2022/10/20 08:13:17;;;;;;;15.52;10.65;;;8.60;99.90;;;;;;5133919;27;20035;-69
2022/10/20 08:15:43;;;;;;;15.52;11.48;;;8.80;99.90;;;;;;5133769;27;20051;-69
2022/10/20 08:18:09;;;;;;;13.30;9.57;;;8.80;99.90;;;;;;5116536;27;20091;-70
2022/10/20 08:20:34;;;;;;;17.35;10.15;;;8.90;99.90;;;;;;5133482;27;20042;-68
2022/10/20 08:23:00;;;;;;;14.25;10.05;;;9.10;99.90;;;;;;5132146;27;20498;-68
2022/10/20 08:25:26;;;;;;;16.10;10.40;;;9.20;99.90;;;;;;5151952;27;20035;-68
2022/10/20 08:27:52;;;;;;;17.63;10.10;;;9.30;99.90;;;;;;5151653;27;20041;-67
2022/10/20 08:30:17;;;;;;;15.25;10.05;;;9.30;99.90;;;;;;5134246;27;20498;-66
2022/10/20 08:32:43;;;;;;;14.80;10.20;;;9.40;99.90;;;;;;5155369;27;20075;-68
2022/10/20 08:35:09;;;;;;;12.98;10.45;;;9.40;99.90;;;;;;5134025;27;20051;-69
2022/10/20 08:37:35;;;;;;;13.85;9.95;;;9.50;99.90;;;;;;5133881;27;20090;-67
2022/10/20 08:40:05;;;;;;;10.85;8.85;;;9.70;99.90;;;;;;5133665;27;20092;-68
2022/10/20 08:42:37;;;;;;;12.18;9.00;;;10.10;99.90;;;;;;5135347;27;20043;-69
2022/10/20 08:45:04;;;;;;;10.02;8.65;;;10.40;99.90;;;;;;5116852;27;20035;-68
2022/10/20 08:47:33;;;;;;;12.65;9.27;;;10.70;99.90;;;;;;5133962;27;20142;-69
2022/10/20 08:50:00;;;;;;;12.45;9.27;;;10.90;99.90;;;;;;5134936;27;20038;-69
2022/10/20 08:52:26;;;;;;;12.02;8.52;;;11.10;99.90;;;;;;5132463;27;20391;-68
2022/10/20 08:54:54;;;;;;;12.93;9.98;;;11.30;99.90;;;;;;5135029;27;20036;-70
2022/10/20 08:57:23;;;;;;;11.35;8.48;;;11.20;99.90;;;;;;5134863;27;20062;-67
2022/10/20 08:59:52;;;;;;;12.05;9.30;;;11.10;99.90;;;;;;5134672;27;20038;-69
2022/10/20 09:02:18;;;;;;;11.35;8.90;;;10.90;99.90;;;;;;5116424;27;20043;-69
2022/10/20 09:04:46;;;;;;;13.43;9.55;;;10.80;99.90;;;;;;5116328;27;20043;-69
2022/10/20 09:07:21;;;;;;;11.52;9.10;;;10.70;99.90;;;;;;5115891;27;20859;-69
2022/10/20 09:09:47;;;;;;;10.20;9.05;;;10.70;99.90;;;;;;5116036;27;20035;-70
2022/10/20 09:12:14;;;;;;;14.73;9.75;;;10.60;99.90;;;;;;5145249;27;20029;-67
2022/10/20 09:14:40;;;;;;;11.88;9.85;;;10.50;99.90;;;;;;5136580;27;20046;-69
2022/10/20 09:17:15;;;;;;;12.05;9.50;;;10.40;99.90;;;;;;5136623;27;20034;-69
2022/10/20 09:19:53;;;;;;;11.88;8.43;;;10.40;99.90;;;;;;5119318;27;20049;-68
2022/10/20 09:22:21;;;;;;;14.77;9.27;;;10.40;99.90;;;;;;5116846;27;20042;-68
2022/10/20 09:24:50;;;;;;;12.32;8.85;;;10.60;99.90;;;;;;5154953;27;20102;-68
2022/10/20 09:27:18;;;;;;;9.70;8.15;;;10.90;99.90;;;;;;5136392;27;20099;-69
2022/10/20 09:29:44;;;;;;;11.13;8.98;;;11.30;99.90;;;;;;5136368;27;20401;-67
2022/10/20 09:32:34;;;;;;;13.80;9.02;;;11.60;99.90;;;;;;5136703;27;20446;-68
2022/10/20 09:35:22;;;;;;;12.48;7.97;;;11.80;99.90;;;;;;5137074;27;20054;-68
2022/10/20 09:38:17;;;;;;;13.82;9.18;;;12.20;99.90;;;;;;5120531;27;20049;-69
2022/10/20 09:40:53;;;;;;;11.75;8.63;;;12.40;99.90;;;;;;5155497;27;20494;-69
2022/10/20 09:43:19;;;;;;;10.88;8.63;;;12.60;99.90;;;;;;5115665;27;20498;-69
2022/10/20 09:45:59;;;;;;;11.00;8.27;;;12.80;99.90;;;;;;5136593;27;20030;-67
2022/10/20 09:48:38;;;;;;;11.93;7.68;;;13.20;99.90;;;;;;5136671;27;20035;-68
2022/10/20 09:51:11;;;;;;;9.18;7.45;;;13.40;99.90;;;;;;5134634;27;20141;-70
2022/10/20 09:53:56;;;;;;;10.57;7.88;;;13.50;99.90;;;;;;5136824;27;20646;-67
2022/10/20 09:56:43;;;;;;;11.93;7.63;;;13.60;99.90;;;;;;5136636;27;20075;-67
2022/10/20 09:59:35;;;;;;;11.00;7.82;;;13.80;99.90;;;;;;5136509;27;20482;-67
2022/10/20 10:02:02;;;;;;;11.77;8.18;;;13.90;99.90;;;;;;5136652;27;20125;-71
2022/10/20 10:04:56;;;;;;;14.25;8.80;;;14.00;99.90;;;;;;5155158;27;20061;-68
2022/10/20 10:07:24;;;;;;;8.98;7.88;;;14.30;99.90;;;;;;5149697;27;20126;-68
2022/10/20 10:09:57;;;;;;;9.82;7.00;;;14.70;99.90;;;;;;5155312;27;20160;-70
2022/10/20 10:12:27;;;;;;;9.82;8.10;;;14.70;99.90;;;;;;5137104;27;20031;-68
2022/10/20 10:15:04;;;;;;;11.27;7.90;;;14.80;99.90;;;;;;5136532;27;20126;-69
2022/10/20 10:17:36;;;;;;;10.27;7.82;;;15.00;99.90;;;;;;5119471;27;20031;-70
2022/10/20 10:20:06;;;;;;;10.15;6.88;;;15.10;99.90;;;;;;5154914;27;20110;-67
2022/10/20 10:22:35;;;;;;;8.23;7.00;;;15.20;99.90;;;;;;5134162;27;20513;-70
2022/10/20 10:25:01;;;;;;;7.88;7.00;;;15.20;99.90;;;;;;5136566;27;20085;-69
2022/10/20 10:27:30;;;;;;;9.23;6.80;;;15.20;99.90;;;;;;5136629;27;20034;-69
2022/10/20 10:30:27;;;;;;;9.65;7.13;;;15.10;99.90;;;;;;5136515;27;20091;-68
2022/10/20 10:32:55;;;;;;;11.65;7.20;;;14.80;99.90;;;;;;5119439;27;20136;-68
2022/10/20 10:35:38;;;;;;;8.85;6.38;;;14.70;99.90;;;;;;5136304;27;20509;-67
2022/10/20 10:38:05;;;;;;;10.23;6.95;;;14.90;99.90;;;;;;5118966;27;20042;-69
2022/10/20 10:40:53;;;;;;;9.02;7.25;;;15.10;99.90;;;;;;5153904;27;20087;-67
2022/10/20 10:44:01;;;;;;;11.32;7.40;;;15.30;99.90;;;;;;5154247;27;20095;-68
2022/10/20 10:46:42;;;;;;;8.65;7.30;;;15.30;99.90;;;;;;5118476;27;20074;-69
2022/10/20 10:49:24;;;;;;;11.05;7.57;;;15.20;99.90;;;;;;5135405;27;20043;-68
2022/10/20 10:51:56;;;;;;;8.45;7.25;;;15.10;99.90;;;;;;5151697;27;20186;-68
2022/10/20 10:54:34;;;;;;;9.57;7.35;;;14.80;99.90;;;;;;5153705;27;20042;-69
2022/10/20 10:57:10;;;;;;;11.60;8.38;;;14.60;99.90;;;;;;5153801;27;20220;-67
2022/10/20 10:59:39;;;;;;;9.38;7.00;;;14.40;99.90;;;;;;5118062;27;20049;-68
2022/10/20 11:02:08;;;;;;;11.23;8.07;;;14.30;99.90;;;;;;5153798;27;20041;-69
2022/10/20 11:04:52;;;;;;;12.48;7.57;;;14.00;99.90;;;;;;5135425;27;20051;-68
2022/10/20 11:07:44;;;;;;;11.32;8.68;;;13.80;99.90;;;;;;5153637;27;20039;-67
2022/10/20 11:10:42;;;;;;;11.07;8.25;;;13.60;99.90;;;;;;5087636;27;20062;-68
2022/10/20 11:13:39;;;;;;;12.25;7.43;;;13.40;99.90;;;;;;5135622;27;20034;-68
2022/10/20 11:16:19;;;;;;;10.02;7.68;;;13.20;99.90;;;;;;5154540;27;20035;-68
2022/10/20 11:19:27;;;;;;;16.00;9.38;;;13.10;99.90;;;;;;5135257;27;20598;-67
2022/10/20 11:22:12;;;;;;;11.57;8.77;;;13.00;99.90;;;;;;5085118;27;20091;-69
2022/10/20 11:25:18;;;;;;;10.13;8.07;;;12.90;99.90;;;;;;5153351;27;20513;-68
2022/10/20 11:27:44;;;;;;;12.70;9.15;;;12.80;99.90;;;;;;5134863;27;20038;-69
2022/10/20 11:30:17;;;;;;;12.40;9.50;;;12.80;99.90;;;;;;5117689;27;20065;-67
2022/10/20 11:33:11;;;;;;;15.10;9.20;;;12.80;99.90;;;;;;5135120;27;20130;-67
2022/10/20 11:35:56;;;;;;;14.75;9.05;;;12.80;99.90;;;;;;5134596;27;20050;-70
2022/10/20 11:38:32;;;;;;;11.00;8.68;;;12.80;99.90;;;;;;5134791;27;20066;-70
2022/10/20 11:41:23;;;;;;;11.55;9.07;;;12.80;99.90;;;;;;5134678;27;20035;-70
2022/10/20 11:44:03;;;;;;;11.00;9.05;;;12.90;99.90;;;;;;5153288;27;20490;-67
2022/10/20 11:46:45;;;;;;;12.85;8.85;;;12.90;99.90;;;;;;5153458;27;20403;-70
2022/10/20 11:49:11;;;;;;;12.90;8.88;;;12.80;99.90;;;;;;5134790;27;20078;-68
2022/10/20 11:51:55;;;;;;;12.60;9.65;;;12.80;99.90;;;;;;5150698;27;20081;-70
2022/10/20 11:54:58;;;;;;;12.80;9.70;;;12.80;99.90;;;;;;5117426;27;20070;-69
2022/10/20 12:01:39;;;;;;;12.30;9.40;;;12.70;99.90;;;;;;5121369;27;20054;-69
2022/10/20 12:04:32;;;;;;;12.05;9.50;;;12.60;99.90;;;;;;5102827;28;20070;-68
2022/10/20 12:07:34;;;;;;;14.07;10.57;;;12.60;99.90;;;;;;5136923;27;20070;-69
2022/10/20 12:10:38;;;;;;;11.48;9.88;;;12.50;99.90;;;;;;5099961;27;20063;-66
2022/10/20 12:13:35;;;;;;;15.02;10.35;;;12.40;99.90;;;;;;5116310;27;20099;-68
2022/10/20 12:16:05;;;;;;;14.70;10.30;;;12.40;99.90;;;;;;5118591;27;20036;-68
2022/10/20 12:18:34;;;;;;;15.30;11.82;;;12.30;99.90;;;;;;5118818;27;20088;-66
2022/10/20 12:21:02;;;;;;;11.17;9.67;;;12.30;99.90;;;;;;5136660;27;20043;-68
2022/10/20 12:23:47;;;;;;;15.05;11.20;;;12.30;99.90;;;;;;5117880;27;20047;-68
2022/10/20 12:26:36;;;;;;;22.30;12.13;;;12.20;99.90;;;;;;5118040;27;20150;-66
2022/10/20 12:29:31;;;;;;;13.70;11.13;;;12.20;99.90;;;;;;5136579;27;20066;-68
2022/10/20 12:32:49;;;;;;;14.65;10.73;;;12.10;99.90;;;;;;5100962;27;20047;-67
2022/10/20 12:35:19;;;;;;;16.90;12.18;;;12.10;99.90;;;;;;5079286;28;20055;-66
2022/10/20 12:38:02;;;;;;;15.40;11.40;;;12.00;99.90;;;;;;5097817;28;20048;-66
2022/10/20 12:40:41;;;;;;;16.27;11.85;;;12.00;99.90;;;;;;5112125;28;20123;-66
2022/10/20 12:43:29;;;;;;;17.48;12.18;;;11.90;99.90;;;;;;5074786;28;20123;-67
2022/10/20 12:46:08;;;;;;;18.60;12.55;;;11.90;99.90;;;;;;5095230;28;20044;-67
2022/10/20 12:48:40;;;;;;;16.90;12.02;;;11.90;99.90;;;;;;5076751;28;20044;-67
2022/10/20 12:51:16;;;;;;;17.48;13.02;;;11.90;99.90;;;;;;5094426;28;20503;-68
2022/10/20 12:53:49;;;;;;;18.05;13.68;;;11.90;99.90;;;;;;5115172;28;20040;-67
2022/10/20 12:56:20;;;;;;;20.38;13.68;;;11.90;99.90;;;;;;5097238;27;20047;-66
2022/10/20 12:59:18;;;;;;;19.42;13.27;;;11.90;99.90;;;;;;5097487;28;20047;-66
2022/10/20 13:02:09;;;;;;;18.30;12.57;;;11.90;99.90;;;;;;5090930;28;20046;-66
2022/10/20 13:05:06;;;;;;;19.02;13.52;;;11.90;99.90;;;;;;5072721;28;20044;-66
2022/10/20 13:07:47;;;;;;;17.77;12.68;;;11.80;99.90;;;;;;5096240;28;20040;-66
2022/10/20 13:10:31;;;;;;;21.45;13.23;;;11.80;99.90;;;;;;5115186;28;20490;-66
2022/10/20 13:13:03;;;;;;;20.65;14.05;;;11.80;99.90;;;;;;5071471;28;20042;-67